Rondinha, Brazil
Current Conditions -  °F | °C
As of 4:00 PM on Saturday 24 Jan 2015 (Local Time) from SBPF Reporting Station
Thunderstorm Thunderstorm  
Wind Chill: 77°   Ceiling: 4500
Heat Index: 79°   Visibility: 6mi
Dew Point: 66°   Wind: 6mph
Humidity: 69%   Direction: 50°NE
Pressure: 29.94"   Gusts: NA
Location:  27.83°S, 52.91°W
Report Text: SBPF 241800Z 05005KT 9999 VCTS BKN045 FEW060CB 25/19 Q1014
Loading
Personal Weather Stations






























Interactive Weather Map New forecast layout! Learn more

10-Day Weather Forecast

Advertisements
Track Severe Weather on mobile